Time;durP1;ratioP1;P1;durP2;ratioP2;P2;SDS_P1;SDS_P2;PMS_P1;PMS_P2;Temp;Humidity;BMP_temperature;BMP_pressure;BME280_temperature;BME280_humidity;BME280_pressure;Samples;Min_cycle;Max_cycle;Signal;HPM_P1;HPM_P2
2023/09/30 00:02:26;;;;;;;5.77;3.10;;;11.40;99.90;;;;;;5016809;28;20185;-46
2023/09/30 00:04:52;;;;;;;5.27;2.57;;;11.50;99.90;;;;;;5017213;28;20178;-43
2023/09/30 00:07:18;;;;;;;4.17;2.87;;;11.50;99.90;;;;;;5017099;28;20668;-42
2023/09/30 00:09:43;;;;;;;6.63;3.23;;;11.40;99.90;;;;;;5016945;28;20204;-43
2023/09/30 00:12:09;;;;;;;7.70;3.47;;;11.50;99.90;;;;;;5016657;28;20174;-43
2023/09/30 00:14:37;;;;;;;4.80;2.93;;;11.40;99.90;;;;;;5017962;28;20213;-46
2023/09/30 00:17:04;;;;;;;5.27;3.13;;;11.50;99.90;;;;;;5000543;28;20182;-48
2023/09/30 00:19:32;;;;;;;7.00;3.47;;;11.50;99.90;;;;;;5017420;28;20213;-42
2023/09/30 00:21:59;;;;;;;7.40;2.77;;;11.50;99.90;;;;;;5018263;28;20269;-43
2023/09/30 00:24:25;;;;;;;6.60;3.30;;;11.40;99.90;;;;;;5015109;28;20240;-42
2023/09/30 00:26:51;;;;;;;7.20;3.40;;;11.60;99.90;;;;;;5015688;28;20181;-42
2023/09/30 00:29:17;;;;;;;8.67;2.83;;;11.60;99.90;;;;;;5016782;28;20202;-41
2023/09/30 00:31:44;;;;;;;6.33;2.70;;;11.60;99.90;;;;;;5016155;28;20552;-42
2023/09/30 00:34:10;;;;;;;7.73;2.53;;;11.60;99.90;;;;;;5016366;28;20518;-41
2023/09/30 00:36:35;;;;;;;5.87;3.30;;;11.60;99.90;;;;;;5015977;28;20185;-40
2023/09/30 00:39:01;;;;;;;5.30;3.03;;;11.60;99.90;;;;;;5015840;28;20743;-41
2023/09/30 00:41:27;;;;;;;8.60;3.67;;;11.70;99.90;;;;;;5015947;28;20182;-43
2023/09/30 00:43:54;;;;;;;5.77;2.67;;;11.60;99.90;;;;;;5015982;28;20268;-42
2023/09/30 00:46:31;;;;;;;8.33;2.80;;;11.70;99.90;;;;;;5015939;28;20213;-43
2023/09/30 00:48:58;;;;;;;8.13;3.30;;;11.60;99.90;;;;;;5015787;28;20240;-43
2023/09/30 00:51:24;;;;;;;7.30;3.10;;;11.60;99.90;;;;;;5016101;28;20196;-41
2023/09/30 00:53:52;;;;;;;6.30;3.23;;;11.60;99.90;;;;;;5015978;28;20591;-42
2023/09/30 00:56:19;;;;;;;6.40;3.33;;;11.60;99.90;;;;;;5016041;28;20240;-41
2023/09/30 00:58:47;;;;;;;6.63;3.07;;;11.60;99.90;;;;;;5015904;28;20213;-44
2023/09/30 01:01:12;;;;;;;4.57;3.13;;;11.60;99.90;;;;;;5015551;28;20202;-41
2023/09/30 01:03:38;;;;;;;3.83;2.70;;;11.60;99.90;;;;;;5015532;28;20622;-42
2023/09/30 01:06:04;;;;;;;8.50;3.07;;;11.50;99.90;;;;;;5015282;28;20661;-39
2023/09/30 01:08:31;;;;;;;6.20;3.23;;;11.50;99.90;;;;;;5015440;28;20224;-42
2023/09/30 01:10:58;;;;;;;4.73;2.60;;;11.50;99.90;;;;;;5015414;28;20217;-44
2023/09/30 01:13:23;;;;;;;6.97;2.97;;;11.50;99.90;;;;;;5015726;28;20193;-42
2023/09/30 01:15:49;;;;;;;6.40;2.73;;;11.40;99.90;;;;;;5015819;28;20182;-46
2023/09/30 01:18:15;;;;;;;5.80;3.27;;;11.40;99.90;;;;;;5013920;28;20264;-45
2023/09/30 01:20:41;;;;;;;5.73;3.00;;;11.40;99.90;;;;;;5015198;28;20202;-46
2023/09/30 01:23:06;;;;;;;5.37;3.20;;;11.40;99.90;;;;;;5015447;28;20181;-47
2023/09/30 01:25:34;;;;;;;6.07;3.50;;;11.30;99.90;;;;;;5015187;28;20207;-46
2023/09/30 01:28:06;;;;;;;7.90;3.30;;;11.30;99.90;;;;;;5015372;28;20197;-46
2023/09/30 01:30:33;;;;;;;5.60;2.87;;;11.30;99.90;;;;;;5013789;28;20206;-47
2023/09/30 01:32:59;;;;;;;5.63;3.03;;;11.30;99.90;;;;;;5015081;28;20177;-47
2023/09/30 01:35:24;;;;;;;4.43;2.83;;;11.30;99.90;;;;;;5015222;28;20186;-44
2023/09/30 01:37:50;;;;;;;5.30;3.30;;;11.30;99.90;;;;;;5015296;28;20198;-47
2023/09/30 01:40:18;;;;;;;6.60;2.80;;;11.30;99.90;;;;;;5015000;28;20197;-46
2023/09/30 01:42:43;;;;;;;8.13;3.27;;;11.20;99.90;;;;;;5013651;28;20170;-44
2023/09/30 01:45:10;;;;;;;9.30;3.73;;;11.20;99.90;;;;;;5014771;28;20244;-47
2023/09/30 01:47:36;;;;;;;6.60;3.40;;;11.20;99.90;;;;;;5013541;28;20181;-47
2023/09/30 01:50:01;;;;;;;10.17;3.77;;;11.20;99.90;;;;;;5014666;28;20204;-47
2023/09/30 01:52:27;;;;;;;5.87;3.30;;;11.20;99.90;;;;;;5013703;28;20178;-45
2023/09/30 01:54:54;;;;;;;8.37;3.47;;;11.20;99.90;;;;;;5013751;28;20181;-45
2023/09/30 01:57:19;;;;;;;7.67;4.13;;;11.20;99.90;;;;;;5014857;28;20205;-46
2023/09/30 01:59:45;;;;;;;7.50;3.63;;;11.10;99.90;;;;;;5013141;28;20666;-47
2023/09/30 02:02:11;;;;;;;7.87;2.73;;;11.20;99.90;;;;;;5013729;28;20181;-46
2023/09/30 02:04:36;;;;;;;6.27;3.63;;;11.10;99.90;;;;;;5014814;28;20665;-46
2023/09/30 02:07:02;;;;;;;5.83;3.50;;;11.10;99.90;;;;;;5013213;28;20653;-46
2023/09/30 02:09:28;;;;;;;5.30;3.20;;;11.10;99.90;;;;;;5014362;28;20231;-46
2023/09/30 02:11:54;;;;;;;12.57;3.50;;;11.00;99.90;;;;;;5014391;28;20184;-47
2023/09/30 02:14:21;;;;;;;6.63;3.83;;;11.00;99.90;;;;;;5013076;28;20649;-46
2023/09/30 02:16:46;;;;;;;5.80;3.40;;;11.00;99.90;;;;;;5014341;28;20632;-44
2023/09/30 02:19:13;;;;;;;11.37;4.10;;;11.00;99.90;;;;;;5013695;28;20215;-46
2023/09/30 02:21:38;;;;;;;6.90;3.77;;;11.00;99.90;;;;;;5014165;28;20181;-47
2023/09/30 02:24:06;;;;;;;6.03;3.63;;;10.90;99.90;;;;;;5014084;28;20178;-46
2023/09/30 02:26:32;;;;;;;5.67;3.73;;;10.90;99.90;;;;;;5014623;28;20209;-45
2023/09/30 02:28:58;;;;;;;8.27;4.13;;;10.80;99.90;;;;;;5014017;28;20181;-45
2023/09/30 02:31:24;;;;;;;7.17;3.70;;;10.80;99.90;;;;;;5013975;28;20181;-46
2023/09/30 02:33:50;;;;;;;6.97;4.00;;;10.80;99.90;;;;;;5014023;28;20197;-48
2023/09/30 02:36:15;;;;;;;8.70;4.67;;;10.70;99.90;;;;;;5013949;28;20190;-47
2023/09/30 02:38:43;;;;;;;7.00;4.60;;;10.70;99.90;;;;;;5014020;28;20208;-45
2023/09/30 02:41:09;;;;;;;7.07;4.07;;;10.70;99.90;;;;;;5012587;28;20197;-47
2023/09/30 02:43:34;;;;;;;9.97;4.93;;;10.70;99.90;;;;;;5012505;28;20197;-48
2023/09/30 02:46:00;;;;;;;9.23;5.40;;;10.70;99.90;;;;;;5012928;28;20170;-46
2023/09/30 02:48:26;;;;;;;9.20;5.40;;;10.70;99.90;;;;;;5012518;28;20178;-45
2023/09/30 02:50:52;;;;;;;6.33;5.07;;;10.70;99.90;;;;;;5013668;28;20685;-45
2023/09/30 02:53:18;;;;;;;9.23;4.90;;;10.70;99.90;;;;;;5012532;28;20186;-45
2023/09/30 02:55:43;;;;;;;11.87;4.90;;;10.70;99.90;;;;;;5013640;28;20547;-44
2023/09/30 02:58:10;;;;;;;9.27;5.47;;;10.70;99.90;;;;;;5013539;28;20205;-47
2023/09/30 03:00:37;;;;;;;12.37;5.30;;;10.70;99.90;;;;;;5012295;28;20291;-48
2023/09/30 03:03:04;;;;;;;8.37;5.23;;;10.70;99.90;;;;;;5012479;28;20180;-47
2023/09/30 03:05:33;;;;;;;8.00;5.90;;;10.70;99.90;;;;;;5013906;28;20170;-46
2023/09/30 03:08:00;;;;;;;8.93;5.07;;;10.60;99.90;;;;;;5012437;28;20231;-49
2023/09/30 03:10:26;;;;;;;6.13;4.87;;;10.60;99.90;;;;;;5013750;28;20263;-48
2023/09/30 03:13:01;;;;;;;7.07;5.10;;;10.60;99.90;;;;;;5012346;28;20551;-47
2023/09/30 03:15:31;;;;;;;6.70;4.23;;;10.60;99.90;;;;;;5014472;28;20247;-46
2023/09/30 03:17:59;;;;;;;6.50;4.50;;;10.50;99.90;;;;;;5012369;28;20206;-46
2023/09/30 03:20:25;;;;;;;4.50;3.90;;;10.50;99.90;;;;;;5013384;28;20198;-47
2023/09/30 03:22:51;;;;;;;4.53;3.90;;;10.50;99.90;;;;;;5013513;28;20232;-45
2023/09/30 03:25:20;;;;;;;5.27;3.97;;;10.50;99.90;;;;;;5013516;28;20174;-43
2023/09/30 03:27:46;;;;;;;5.27;4.37;;;10.50;99.90;;;;;;5013444;28;20190;-48
2023/09/30 03:30:14;;;;;;;17.80;4.67;;;10.40;99.90;;;;;;5016261;28;20196;-47
2023/09/30 03:32:39;;;;;;;7.20;4.93;;;10.40;99.90;;;;;;5016304;28;20223;-42
2023/09/30 03:35:07;;;;;;;7.27;4.60;;;10.40;99.90;;;;;;5017347;28;20256;-45
2023/09/30 03:37:34;;;;;;;5.57;4.37;;;10.40;99.90;;;;;;5015843;28;20679;-42
2023/09/30 03:40:11;;;;;;;5.20;4.40;;;10.40;99.90;;;;;;5016995;28;20204;-43
2023/09/30 03:42:38;;;;;;;8.03;5.13;;;10.30;99.90;;;;;;5019793;28;20193;-41
2023/09/30 03:45:07;;;;;;;5.83;5.03;;;10.30;99.90;;;;;;5019287;28;20197;-42
2023/09/30 03:47:34;;;;;;;5.77;4.97;;;10.30;99.90;;;;;;5017182;28;20188;-42
2023/09/30 03:49:59;;;;;;;9.37;5.63;;;10.20;99.90;;;;;;5016947;28;20193;-44
2023/09/30 03:52:26;;;;;;;11.33;5.93;;;10.20;99.90;;;;;;5016977;28;20192;-43
2023/09/30 03:54:53;;;;;;;13.50;6.10;;;10.20;99.90;;;;;;5017199;28;20585;-43
2023/09/30 03:57:19;;;;;;;9.97;5.37;;;10.20;99.90;;;;;;5017258;28;20646;-41
2023/09/30 03:59:46;;;;;;;7.47;5.47;;;10.20;99.90;;;;;;5017078;28;20213;-42
2023/09/30 04:02:12;;;;;;;7.93;5.43;;;10.20;99.90;;;;;;5017547;28;20242;-44
2023/09/30 04:04:37;;;;;;;7.37;5.60;;;10.10;99.90;;;;;;5017366;28;20185;-42
2023/09/30 04:07:05;;;;;;;7.47;6.07;;;10.10;99.90;;;;;;5016925;28;20629;-40
2023/09/30 04:09:31;;;;;;;12.43;6.27;;;10.10;99.90;;;;;;5016515;28;20604;-42
2023/09/30 04:11:58;;;;;;;7.40;6.10;;;10.10;99.90;;;;;;5015450;28;20241;-41
2023/09/30 04:14:24;;;;;;;12.50;6.57;;;10.00;99.90;;;;;;5016474;28;20253;-43
2023/09/30 04:16:50;;;;;;;9.30;5.93;;;10.00;99.90;;;;;;5016443;28;20267;-43
2023/09/30 04:19:16;;;;;;;9.33;6.83;;;10.00;99.90;;;;;;5016326;28;20340;-44
2023/09/30 04:21:42;;;;;;;9.73;6.47;;;10.00;99.90;;;;;;5016343;28;20673;-41
2023/09/30 04:24:09;;;;;;;10.50;6.43;;;10.00;99.90;;;;;;5016540;28;20171;-42
2023/09/30 04:26:34;;;;;;;9.53;6.33;;;10.00;99.90;;;;;;5016321;28;20184;-43
2023/09/30 04:29:01;;;;;;;9.17;7.10;;;10.00;99.90;;;;;;5016218;28;20648;-42
2023/09/30 04:31:28;;;;;;;9.93;7.97;;;10.00;99.90;;;;;;5016194;28;20268;-41
2023/09/30 04:33:54;;;;;;;11.27;7.63;;;9.90;99.90;;;;;;5016444;28;20540;-42
2023/09/30 04:36:21;;;;;;;14.07;8.47;;;10.00;99.90;;;;;;5016324;28;20188;-40
2023/09/30 04:38:47;;;;;;;10.40;8.13;;;10.00;99.90;;;;;;5016101;28;20291;-43
2023/09/30 04:41:13;;;;;;;11.27;7.43;;;10.00;99.90;;;;;;5015110;28;20279;-43
2023/09/30 04:43:38;;;;;;;11.73;8.33;;;10.00;99.90;;;;;;5015732;28;20631;-41
2023/09/30 04:46:05;;;;;;;10.97;7.10;;;9.90;99.90;;;;;;5016115;28;20256;-43
2023/09/30 04:48:32;;;;;;;10.83;7.17;;;9.90;99.90;;;;;;5016047;28;20183;-41
2023/09/30 04:50:57;;;;;;;9.20;6.80;;;9.80;99.90;;;;;;5015987;28;20205;-42
2023/09/30 04:53:23;;;;;;;10.67;7.40;;;9.80;99.90;;;;;;5015948;28;20250;-41
2023/09/30 04:55:51;;;;;;;10.57;7.00;;;9.80;99.90;;;;;;5015934;28;20271;-40
2023/09/30 04:58:17;;;;;;;10.93;7.27;;;9.70;99.90;;;;;;5015844;28;20238;-42
2023/09/30 05:00:43;;;;;;;12.67;7.70;;;9.70;99.90;;;;;;5015794;28;20673;-42
2023/09/30 05:03:09;;;;;;;13.37;8.23;;;9.70;99.90;;;;;;5015776;28;20184;-41
2023/09/30 05:05:35;;;;;;;11.20;7.70;;;9.70;99.90;;;;;;5015481;28;20260;-45
2023/09/30 05:08:01;;;;;;;12.00;8.67;;;9.70;99.90;;;;;;5015348;28;20193;-41
2023/09/30 05:10:27;;;;;;;13.10;7.87;;;9.70;99.90;;;;;;5015639;28;20572;-41
2023/09/30 05:12:54;;;;;;;12.00;7.70;;;9.60;99.90;;;;;;5015400;28;20263;-40
2023/09/30 05:15:20;;;;;;;14.07;8.03;;;9.70;99.90;;;;;;5015326;28;20570;-39
2023/09/30 05:17:47;;;;;;;13.23;7.90;;;9.60;99.90;;;;;;5015496;28;20212;-43
2023/09/30 05:20:13;;;;;;;11.57;7.20;;;9.60;99.90;;;;;;5015164;28;20247;-42
2023/09/30 05:22:45;;;;;;;13.73;7.00;;;9.60;99.90;;;;;;5015210;28;20188;-39
2023/09/30 05:25:17;;;;;;;12.93;6.90;;;9.60;99.90;;;;;;5015132;28;20630;-42
2023/09/30 05:27:47;;;;;;;8.60;6.33;;;9.60;99.90;;;;;;5015370;28;20168;-43
2023/09/30 05:30:15;;;;;;;31.40;7.37;;;9.60;99.90;;;;;;5015136;28;20196;-43
2023/09/30 05:32:40;;;;;;;9.40;5.87;;;9.50;99.90;;;;;;5014942;28;20196;-41
2023/09/30 05:35:12;;;;;;;28.83;5.80;;;9.50;99.90;;;;;;5015274;28;20637;-42
2023/09/30 05:37:41;;;;;;;7.67;5.80;;;9.50;99.90;;;;;;5015193;28;20218;-43
2023/09/30 05:40:21;;;;;;;23.77;6.17;;;9.50;99.90;;;;;;5015371;28;20211;-46
2023/09/30 05:42:51;;;;;;;15.93;4.90;;;9.50;99.90;;;;;;5015380;28;20226;-47
2023/09/30 05:45:17;;;;;;;13.03;5.37;;;9.50;99.90;;;;;;5015123;28;20637;-46
2023/09/30 05:47:44;;;;;;;8.27;5.73;;;9.50;99.90;;;;;;5014674;28;20236;-45
2023/09/30 05:50:14;;;;;;;11.27;6.53;;;9.50;99.90;;;;;;5014615;28;20667;-49
2023/09/30 05:52:40;;;;;;;8.90;5.83;;;9.50;99.90;;;;;;5014772;28;20252;-46
2023/09/30 05:55:06;;;;;;;16.03;6.70;;;9.50;99.90;;;;;;5014747;28;20208;-48
2023/09/30 05:57:33;;;;;;;9.70;5.37;;;9.50;99.90;;;;;;5013608;28;20218;-47
2023/09/30 05:59:59;;;;;;;21.00;6.07;;;9.50;99.90;;;;;;5014808;28;20204;-46
2023/09/30 06:02:25;;;;;;;14.97;6.33;;;9.50;99.90;;;;;;5014978;28;20184;-46
2023/09/30 06:04:53;;;;;;;10.90;6.13;;;9.50;99.90;;;;;;5014691;28;20181;-47
2023/09/30 06:07:19;;;;;;;18.70;6.17;;;9.50;99.90;;;;;;5014761;28;20193;-46
2023/09/30 06:09:48;;;;;;;7.63;5.23;;;9.60;99.90;;;;;;5014383;28;20218;-47
2023/09/30 06:12:14;;;;;;;6.67;4.73;;;9.60;99.90;;;;;;5013482;28;20194;-46
2023/09/30 06:14:40;;;;;;;6.17;5.20;;;9.60;99.90;;;;;;5014232;28;20647;-47
2023/09/30 06:17:07;;;;;;;8.13;6.10;;;9.60;99.90;;;;;;5014795;28;20608;-46
2023/09/30 06:19:32;;;;;;;7.17;5.43;;;9.70;99.90;;;;;;5014436;28;20240;-46
2023/09/30 06:21:59;;;;;;;8.77;6.00;;;9.60;99.90;;;;;;5012947;28;20648;-46
2023/09/30 06:24:24;;;;;;;8.90;6.17;;;9.60;99.90;;;;;;5012855;28;20663;-46
2023/09/30 06:26:51;;;;;;;13.70;8.53;;;9.70;99.90;;;;;;5014322;28;20276;-47
2023/09/30 06:29:17;;;;;;;11.57;7.40;;;9.70;99.90;;;;;;5014038;28;20210;-47
2023/09/30 06:31:43;;;;;;;15.27;10.10;;;9.70;99.90;;;;;;5014207;28;20188;-45
2023/09/30 06:34:11;;;;;;;15.90;10.40;;;9.70;99.90;;;;;;5012789;28;20270;-47
2023/09/30 06:36:37;;;;;;;18.90;10.00;;;9.80;99.90;;;;;;5014166;28;20182;-46
2023/09/30 06:39:05;;;;;;;15.80;10.33;;;9.80;99.90;;;;;;5013734;28;20671;-46
2023/09/30 06:41:31;;;;;;;18.70;10.53;;;9.90;99.90;;;;;;5013860;28;20170;-49
2023/09/30 06:43:57;;;;;;;16.60;10.03;;;10.00;99.90;;;;;;5013999;28;20197;-47
2023/09/30 06:46:23;;;;;;;17.03;10.07;;;10.00;99.90;;;;;;5017600;28;20197;-47
2023/09/30 06:48:52;;;;;;;16.70;11.10;;;10.10;99.90;;;;;;5021217;28;20271;-47
2023/09/30 06:51:18;;;;;;;18.03;11.53;;;10.10;99.90;;;;;;5015644;28;20199;-45
2023/09/30 06:53:43;;;;;;;20.60;11.60;;;10.20;99.90;;;;;;5013628;28;20540;-47
2023/09/30 06:56:09;;;;;;;21.63;11.80;;;10.30;99.90;;;;;;5013689;28;20191;-45
2023/09/30 06:58:35;;;;;;;22.50;12.23;;;10.30;99.90;;;;;;5013611;28;20666;-47
2023/09/30 07:01:18;;;;;;;22.53;12.37;;;10.40;99.90;;;;;;5012746;28;20214;-47
2023/09/30 07:03:49;;;;;;;22.80;12.83;;;10.50;99.90;;;;;;5013704;28;20620;-48
2023/09/30 07:06:26;;;;;;;24.00;13.33;;;10.70;99.90;;;;;;5014525;28;20180;-47
2023/09/30 07:08:52;;;;;;;21.93;12.70;;;10.80;99.90;;;;;;4994139;28;20187;-41
2023/09/30 07:11:28;;;;;;;25.53;14.40;;;10.90;99.90;;;;;;4993903;28;20198;-41
2023/09/30 07:13:53;;;;;;;23.40;13.80;;;11.00;99.90;;;;;;4993874;28;20221;-41
2023/09/30 07:16:19;;;;;;;22.67;12.50;;;11.20;99.90;;;;;;4992588;28;20180;-41
2023/09/30 07:18:44;;;;;;;28.63;13.77;;;11.40;99.90;;;;;;4993801;28;20285;-43
2023/09/30 07:21:11;;;;;;;32.63;14.63;;;11.50;99.90;;;;;;4993945;28;20238;-43
2023/09/30 07:23:37;;;;;;;30.20;14.53;;;11.70;99.90;;;;;;4993845;28;20181;-44
2023/09/30 07:26:03;;;;;;;31.93;14.93;;;11.80;99.90;;;;;;4994085;28;20717;-43
2023/09/30 07:28:28;;;;;;;28.43;14.90;;;11.90;99.90;;;;;;4993782;28;20184;-42
2023/09/30 07:30:55;;;;;;;30.83;15.00;;;12.10;99.90;;;;;;4993679;28;20201;-43
2023/09/30 07:33:20;;;;;;;29.23;15.03;;;12.20;99.90;;;;;;4994110;28;20213;-43
2023/09/30 07:35:46;;;;;;;32.80;15.07;;;12.30;99.90;;;;;;4993921;28;20212;-42
2023/09/30 07:38:12;;;;;;;40.07;16.10;;;12.40;99.90;;;;;;4993525;28;20206;-44
2023/09/30 07:40:37;;;;;;;33.23;16.03;;;12.50;99.90;;;;;;4993691;28;20280;-43
2023/09/30 07:43:03;;;;;;;44.43;17.70;;;12.70;99.90;;;;;;4993484;28;20182;-41
2023/09/30 07:45:29;;;;;;;38.47;16.83;;;12.70;99.90;;;;;;4993672;28;20320;-40
2023/09/30 07:47:55;;;;;;;47.87;17.93;;;12.90;99.90;;;;;;4993688;28;20300;-43
2023/09/30 07:50:21;;;;;;;40.00;18.07;;;13.00;99.90;;;;;;4993839;28;20263;-42
2023/09/30 07:52:47;;;;;;;47.30;17.40;;;13.10;99.90;;;;;;4993555;28;20175;-41
2023/09/30 07:55:13;;;;;;;41.97;17.53;;;13.20;99.90;;;;;;4993551;28;20182;-41
2023/09/30 07:57:44;;;;;;;46.90;17.40;;;13.30;99.90;;;;;;4992231;28;20197;-42
2023/09/30 08:00:14;;;;;;;55.30;18.87;;;13.50;99.90;;;;;;4993590;28;20279;-46
2023/09/30 08:02:43;;;;;;;52.33;17.90;;;13.50;99.90;;;;;;4992394;28;20254;-46
2023/09/30 08:05:10;;;;;;;46.40;18.10;;;13.70;99.90;;;;;;4992281;28;20186;-47
2023/09/30 08:07:36;;;;;;;51.00;17.70;;;13.80;99.90;;;;;;4993907;28;20181;-46
2023/09/30 08:10:06;;;;;;;37.47;15.83;;;13.90;99.90;;;;;;4995001;28;20194;-45
2023/09/30 08:12:33;;;;;;;47.87;16.87;;;14.00;99.90;;;;;;4994477;28;20202;-46
2023/09/30 08:14:59;;;;;;;44.63;17.67;;;14.10;99.90;;;;;;4992855;28;20654;-47
2023/09/30 08:17:25;;;;;;;45.67;17.70;;;14.20;99.90;;;;;;4997676;28;20178;-48
2023/09/30 08:19:51;;;;;;;37.37;16.37;;;14.30;99.90;;;;;;4998343;28;20289;-46
2023/09/30 08:22:17;;;;;;;41.40;17.00;;;14.40;99.90;;;;;;4998833;28;20198;-46
2023/09/30 08:24:44;;;;;;;42.03;17.03;;;14.50;99.90;;;;;;4996978;28;20186;-48
2023/09/30 08:27:11;;;;;;;42.43;17.00;;;14.60;99.90;;;;;;4996690;28;20236;-48
2023/09/30 08:29:37;;;;;;;35.67;16.13;;;14.60;99.90;;;;;;4996828;28;20213;-46
2023/09/30 08:32:08;;;;;;;39.57;16.33;;;14.70;99.90;;;;;;4996745;28;20185;-46
2023/09/30 08:34:37;;;;;;;38.27;15.97;;;14.80;99.90;;;;;;4996646;28;20177;-46
2023/09/30 08:37:04;;;;;;;40.57;15.40;;;14.90;99.90;;;;;;4996450;28;20185;-47
2023/09/30 08:39:30;;;;;;;34.90;15.17;;;15.00;99.90;;;;;;4996243;28;20701;-47
2023/09/30 08:41:56;;;;;;;34.23;14.83;;;15.10;99.90;;;;;;4996339;28;20647;-48
2023/09/30 08:44:22;;;;;;;29.87;14.80;;;15.20;99.90;;;;;;4995049;28;20269;-46
2023/09/30 08:46:50;;;;;;;31.13;14.63;;;15.30;99.90;;;;;;4978936;28;20194;-46
2023/09/30 08:49:18;;;;;;;31.33;14.37;;;15.40;99.90;;;;;;4996291;28;20205;-47
2023/09/30 08:51:55;;;;;;;24.53;13.77;;;15.60;99.90;;;;;;4996310;28;20178;-47
2023/09/30 08:54:25;;;;;;;27.67;13.50;;;15.70;99.90;;;;;;4996483;28;20577;-48
2023/09/30 08:56:52;;;;;;;24.87;12.37;;;15.80;99.90;;;;;;4994964;28;20208;-47
2023/09/30 08:59:18;;;;;;;20.00;11.13;;;15.90;99.90;;;;;;4996425;28;20723;-46
2023/09/30 09:01:44;;;;;;;20.93;10.03;;;15.90;99.90;;;;;;4996427;28;20177;-46
2023/09/30 09:04:11;;;;;;;19.83;9.40;;;15.90;99.90;;;;;;4996117;28;20648;-48
2023/09/30 09:06:37;;;;;;;13.23;9.60;;;15.90;99.90;;;;;;4995919;28;20229;-47
2023/09/30 09:09:22;;;;;;;17.73;8.67;;;15.90;99.90;;;;;;4995862;28;20646;-45
2023/09/30 09:11:49;;;;;;;13.40;8.83;;;15.90;99.90;;;;;;4995976;28;20161;-45
2023/09/30 09:14:16;;;;;;;15.23;8.23;;;15.90;99.90;;;;;;4995836;28;20217;-46
2023/09/30 09:16:55;;;;;;;14.00;8.20;;;16.00;99.90;;;;;;4995820;28;20179;-46
2023/09/30 09:19:30;;;;;;;15.80;8.70;;;16.10;99.90;;;;;;4994558;28;20206;-47
2023/09/30 09:21:58;;;;;;;12.97;7.43;;;16.20;99.90;;;;;;4995798;28;20157;-46
2023/09/30 09:24:43;;;;;;;12.50;7.40;;;16.30;99.90;;;;;;4995872;28;20181;-47
2023/09/30 09:27:16;;;;;;;11.03;6.60;;;16.40;99.90;;;;;;4995210;28;20170;-47
2023/09/30 09:29:44;;;;;;;10.37;6.47;;;16.50;99.90;;;;;;4995559;28;20237;-45
2023/09/30 09:32:12;;;;;;;13.20;6.93;;;16.60;99.90;;;;;;4994488;28;20237;-47
2023/09/30 09:34:39;;;;;;;10.73;5.87;;;16.70;99.90;;;;;;4995670;28;20265;-45
2023/09/30 09:37:17;;;;;;;10.17;6.37;;;16.80;99.90;;;;;;4995346;28;20182;-47
2023/09/30 09:39:56;;;;;;;10.80;6.53;;;16.90;99.90;;;;;;4994005;28;20220;-45
2023/09/30 09:42:32;;;;;;;9.83;6.30;;;17.00;99.90;;;;;;4995662;28;20245;-45
2023/09/30 09:45:03;;;;;;;11.20;5.50;;;17.10;99.90;;;;;;4995221;28;20204;-45
2023/09/30 09:47:31;;;;;;;11.37;5.27;;;17.20;99.90;;;;;;4995243;28;20250;-46
2023/09/30 09:49:58;;;;;;;8.20;5.67;;;17.40;99.90;;;;;;4993774;28;20213;-47
2023/09/30 09:52:25;;;;;;;10.63;5.57;;;17.50;99.90;;;;;;4995032;28;20217;-45
2023/09/30 09:54:55;;;;;;;9.07;5.77;;;17.60;99.90;;;;;;4977512;28;20189;-45
2023/09/30 09:57:26;;;;;;;10.83;6.23;;;17.70;99.90;;;;;;4994912;28;20548;-47
2023/09/30 09:59:56;;;;;;;17.93;6.00;;;17.80;99.90;;;;;;4994831;28;20213;-47
2023/09/30 10:02:24;;;;;;;10.47;5.10;;;17.80;99.90;;;;;;4993737;28;20177;-47
2023/09/30 10:04:51;;;;;;;11.93;5.60;;;18.00;99.90;;;;;;4994896;28;20174;-47
2023/09/30 10:07:22;;;;;;;11.13;5.67;;;18.00;99.90;;;;;;4994737;28;20182;-46
2023/09/30 10:09:51;;;;;;;8.60;5.03;;;18.10;99.90;;;;;;4994675;28;20213;-47
2023/09/30 10:14:47;;;;;;;7.50;4.70;;;18.30;99.90;;;;;;4994835;28;20214;-87
2023/09/30 10:17:13;;;;;;;9.13;5.37;;;18.30;99.90;;;;;;4978151;28;20670;-87
2023/09/30 10:20:09;;;;;;;10.97;4.53;;;18.40;99.90;;;;;;4978294;28;20209;-89
2023/09/30 10:22:35;;;;;;;11.87;4.93;;;18.50;99.90;;;;;;4978305;28;20674;-88
2023/09/30 10:25:01;;;;;;;9.10;4.13;;;18.50;99.90;;;;;;4978302;28;20182;-88
2023/09/30 10:27:39;;;;;;;11.97;4.73;;;18.50;99.90;;;;;;4995195;28;20178;-86
2023/09/30 10:30:10;;;;;;;6.97;4.13;;;18.50;99.90;;;;;;4979457;28;20543;-89
2023/09/30 10:32:50;;;;;;;8.07;4.10;;;19.00;99.90;;;;;;4977751;28;20170;-88
2023/09/30 10:35:31;;;;;;;5.47;3.50;;;19.00;99.90;;;;;;4978086;28;20212;-87
2023/09/30 10:38:22;;;;;;;8.37;4.50;;;18.90;99.90;;;;;;4978120;28;20233;-90
2023/09/30 10:40:51;;;;;;;11.00;4.30;;;19.10;99.90;;;;;;4978902;28;20296;-90
2023/09/30 10:43:37;;;;;;;8.20;4.17;;;19.60;99.90;;;;;;4978789;28;20189;-88
2023/09/30 10:46:23;;;;;;;8.60;3.70;;;19.50;99.90;;;;;;4978606;28;20208;-87
2023/09/30 10:48:49;;;;;;;8.50;4.27;;;19.70;98.30;;;;;;4981581;28;20186;-86
2023/09/30 10:51:20;;;;;;;10.57;4.03;;;19.70;64.20;;;;;;4980094;28;20202;-89
2023/09/30 10:53:56;;;;;;;6.87;3.63;;;19.60;87.80;;;;;;4979677;28;20185;-88
2023/09/30 10:56:22;;;;;;;5.83;3.37;;;19.80;91.00;;;;;;4979257;28;20529;-84
2023/09/30 10:58:50;;;;;;;6.57;3.43;;;19.90;82.00;;;;;;4995420;28;20253;-88
2023/09/30 11:01:18;;;;;;;8.27;3.83;;;20.20;84.10;;;;;;4977904;28;20606;-85
2023/09/30 11:03:45;;;;;;;6.00;3.90;;;20.10;81.90;;;;;;4978078;28;20241;-87
2023/09/30 11:06:13;;;;;;;7.90;3.80;;;21.10;85.00;;;;;;4977395;28;20179;-88
2023/09/30 11:08:45;;;;;;;6.57;4.10;;;20.40;87.50;;;;;;4977212;28;20197;-87
2023/09/30 11:11:11;;;;;;;7.57;3.90;;;20.40;78.10;;;;;;4978548;28;20206;-86
2023/09/30 11:13:36;;;;;;;5.50;3.07;;;20.50;77.90;;;;;;4978190;28;20205;-88
2023/09/30 11:16:07;;;;;;;7.57;4.00;;;20.50;82.40;;;;;;4978931;28;20182;-89
2023/09/30 11:18:33;;;;;;;6.43;3.33;;;20.70;76.80;;;;;;4995385;28;20224;-89
2023/09/30 11:21:10;;;;;;;5.77;3.83;;;21.00;66.70;;;;;;4978564;28;20297;-87
2023/09/30 11:23:37;;;;;;;6.67;3.33;;;20.70;75.40;;;;;;4995723;28;20166;-87
2023/09/30 11:26:03;;;;;;;3.83;3.30;;;20.80;82.30;;;;;;4995907;28;20174;-88
2023/09/30 11:28:40;;;;;;;7.93;3.70;;;20.60;70.40;;;;;;4977525;28;20182;-88
2023/09/30 11:31:10;;;;;;;6.37;3.90;;;20.40;62.20;;;;;;4977778;28;20212;-87
2023/09/30 11:33:56;;;;;;;8.03;3.70;;;20.40;79.30;;;;;;4977737;28;20237;-88
2023/09/30 11:36:22;;;;;;;7.83;3.60;;;20.50;84.60;;;;;;4978021;28;20261;-86
2023/09/30 11:38:50;;;;;;;8.67;3.60;;;20.90;90.00;;;;;;4977719;28;20775;-89
2023/09/30 11:41:21;;;;;;;6.60;3.60;;;20.40;93.70;;;;;;4978149;28;20670;-88
2023/09/30 11:44:07;;;;;;;5.73;3.30;;;20.20;73.10;;;;;;4977799;28;20179;-88
2023/09/30 11:46:36;;;;;;;7.23;3.10;;;20.50;60.10;;;;;;4977317;28;20237;-87
2023/09/30 11:49:04;;;;;;;6.00;3.20;;;20.10;90.30;;;;;;4978071;28;20182;-86
2023/09/30 11:51:42;;;;;;;6.90;2.83;;;20.20;78.30;;;;;;4980611;28;20209;-89
2023/09/30 11:54:08;;;;;;;7.43;3.20;;;20.30;82.50;;;;;;4981349;28;20182;-90
2023/09/30 11:56:34;;;;;;;6.87;3.40;;;20.50;92.30;;;;;;4998461;28;20182;-90
2023/09/30 11:59:02;;;;;;;4.90;3.20;;;20.80;94.40;;;;;;4981449;28;20232;-88
2023/09/30 12:01:30;;;;;;;4.60;2.93;;;21.00;92.80;;;;;;4981023;28;20206;-88
2023/09/30 12:03:56;;;;;;;5.70;3.20;;;21.10;77.30;;;;;;4981201;28;20182;-89
2023/09/30 12:06:22;;;;;;;4.93;2.77;;;21.20;66.90;;;;;;4981384;28;20677;-90
2023/09/30 12:08:48;;;;;;;6.60;3.00;;;21.30;80.40;;;;;;4999163;28;20205;-88
2023/09/30 12:11:15;;;;;;;5.00;2.80;;;21.50;90.10;;;;;;4999404;28;20578;-89
2023/09/30 12:13:41;;;;;;;8.63;3.53;;;22.00;73.40;;;;;;4982600;28;20217;-88
2023/09/30 12:16:07;;;;;;;4.80;2.40;;;21.50;55.40;;;;;;4999153;28;20182;-88
2023/09/30 12:18:32;;;;;;;5.27;2.87;;;21.50;69.50;;;;;;4981224;28;20304;-87
2023/09/30 12:20:59;;;;;;;6.87;2.80;;;21.80;79.40;;;;;;4981916;28;20236;-89
2023/09/30 12:23:24;;;;;;;4.90;2.90;;;21.70;74.30;;;;;;4981914;28;20240;-91
2023/09/30 12:25:50;;;;;;;5.53;3.00;;;21.80;85.00;;;;;;4999621;28;20220;-89
2023/09/30 12:28:17;;;;;;;5.97;2.80;;;21.90;80.30;;;;;;4999310;28;20186;-90
2023/09/30 12:30:43;;;;;;;6.03;2.93;;;21.70;83.10;;;;;;4981214;28;20269;-87
2023/09/30 12:33:09;;;;;;;8.50;3.03;;;22.60;84.20;;;;;;4981406;28;20679;-88
2023/09/30 12:35:35;;;;;;;4.57;2.43;;;21.90;76.50;;;;;;4999014;28;20650;-88
2023/09/30 12:38:01;;;;;;;5.43;2.83;;;22.00;77.20;;;;;;4980613;28;20225;-89
2023/09/30 12:40:28;;;;;;;5.40;2.73;;;22.00;73.40;;;;;;4981320;28;20198;-90
2023/09/30 12:42:53;;;;;;;4.20;2.60;;;21.80;78.40;;;;;;4981999;28;20242;-89
2023/09/30 12:45:19;;;;;;;5.57;3.03;;;22.50;80.10;;;;;;4999521;28;20230;-89
2023/09/30 12:47:47;;;;;;;5.73;3.20;;;21.90;84.20;;;;;;4999404;28;20201;-88
2023/09/30 12:50:12;;;;;;;6.30;3.00;;;22.00;68.40;;;;;;4981948;28;20278;-88